sensor_id;sensor_type;location;lat;lon;timestamp;pressure;altitude;pressure_sealevel;temperature;humidity
70009;BME280;59542;37.950;-122.338;2023-06-26T00:00:22;101535.56;;;24.01;42.23
70009;BME280;59542;37.950;-122.338;2023-06-26T00:02:48;101533.16;;;23.89;46.07
70009;BME280;59542;37.950;-122.338;2023-06-26T00:05:14;101530.94;;;23.96;46.10
70009;BME280;59542;37.950;-122.338;2023-06-26T00:07:41;101533.34;;;24.03;44.05
70009;BME280;59542;37.950;-122.338;2023-06-26T00:10:08;101542.94;;;24.06;44.95
70009;BME280;59542;37.950;-122.338;2023-06-26T00:12:34;101544.09;;;23.89;44.25
70009;BME280;59542;37.950;-122.338;2023-06-26T00:15:01;101531.53;;;23.88;43.48
70009;BME280;59542;37.950;-122.338;2023-06-26T00:17:27;101529.38;;;23.70;44.90
70009;BME280;59542;37.950;-122.338;2023-06-26T00:19:53;101525.00;;;23.54;44.23
70009;BME280;59542;37.950;-122.338;2023-06-26T00:22:21;101528.84;;;23.63;45.46
70009;BME280;59542;37.950;-122.338;2023-06-26T00:24:47;101526.69;;;23.34;45.42
70009;BME280;59542;37.950;-122.338;2023-06-26T00:27:13;101527.50;;;23.25;47.07
70009;BME280;59542;37.950;-122.338;2023-06-26T00:29:40;101523.13;;;23.08;46.73
70009;BME280;59542;37.950;-122.338;2023-06-26T00:32:06;101524.50;;;23.16;46.82
70009;BME280;59542;37.950;-122.338;2023-06-26T00:34:33;101525.84;;;23.08;45.45
70009;BME280;59542;37.950;-122.338;2023-06-26T00:36:59;101526.69;;;23.09;45.31
70009;BME280;59542;37.950;-122.338;2023-06-26T00:39:26;101522.00;;;22.84;47.44
70009;BME280;59542;37.950;-122.338;2023-06-26T00:41:52;101525.00;;;22.67;46.42
70009;BME280;59542;37.950;-122.338;2023-06-26T00:44:21;101521.94;;;22.53;46.73
70009;BME280;59542;37.950;-122.338;2023-06-26T00:46:48;101513.16;;;22.36;47.55
70009;BME280;59542;37.950;-122.338;2023-06-26T00:49:14;101519.75;;;22.45;47.10
70009;BME280;59542;37.950;-122.338;2023-06-26T00:51:41;101520.00;;;22.38;46.83
70009;BME280;59542;37.950;-122.338;2023-06-26T00:54:07;101518.06;;;22.29;47.39
70009;BME280;59542;37.950;-122.338;2023-06-26T00:56:34;101521.78;;;22.07;47.79
70009;BME280;59542;37.950;-122.338;2023-06-26T00:59:01;101529.88;;;21.92;47.95
70009;BME280;59542;37.950;-122.338;2023-06-26T01:01:27;101538.63;;;21.94;48.02
70009;BME280;59542;37.950;-122.338;2023-06-26T01:03:53;101529.66;;;21.99;48.00
70009;BME280;59542;37.950;-122.338;2023-06-26T01:06:23;101526.81;;;21.78;48.68
70009;BME280;59542;37.950;-122.338;2023-06-26T01:08:51;101534.63;;;21.65;49.22
70009;BME280;59542;37.950;-122.338;2023-06-26T01:11:18;101529.47;;;21.68;48.30
70009;BME280;59542;37.950;-122.338;2023-06-26T01:13:44;101531.50;;;21.46;49.00
70009;BME280;59542;37.950;-122.338;2023-06-26T01:16:11;101530.09;;;21.38;48.68
70009;BME280;59542;37.950;-122.338;2023-06-26T01:18:39;101531.81;;;21.49;48.96
70009;BME280;59542;37.950;-122.338;2023-06-26T01:21:12;101537.69;;;21.36;49.45
70009;BME280;59542;37.950;-122.338;2023-06-26T01:24:16;101540.16;;;21.32;50.33
70009;BME280;59542;37.950;-122.338;2023-06-26T01:26:53;101523.47;;;21.29;49.42
70009;BME280;59542;37.950;-122.338;2023-06-26T01:29:21;101524.16;;;21.14;50.31
70009;BME280;59542;37.950;-122.338;2023-06-26T01:31:49;101527.63;;;21.04;51.50
70009;BME280;59542;37.950;-122.338;2023-06-26T01:34:17;101520.53;;;20.76;51.02
70009;BME280;59542;37.950;-122.338;2023-06-26T01:36:46;101527.13;;;20.80;51.57
70009;BME280;59542;37.950;-122.338;2023-06-26T01:39:18;101532.13;;;20.89;51.91
70009;BME280;59542;37.950;-122.338;2023-06-26T01:41:45;101525.16;;;20.76;51.31
70009;BME280;59542;37.950;-122.338;2023-06-26T01:44:23;101527.78;;;20.93;51.43
70009;BME280;59542;37.950;-122.338;2023-06-26T01:47:01;101519.38;;;20.94;51.47
70009;BME280;59542;37.950;-122.338;2023-06-26T01:49:43;101515.53;;;20.90;51.04
70009;BME280;59542;37.950;-122.338;2023-06-26T01:55:32;101516.25;;;21.13;50.86
70009;BME280;59542;37.950;-122.338;2023-06-26T01:58:02;101522.41;;;21.30;51.05
70009;BME280;59542;37.950;-122.338;2023-06-26T02:00:29;101511.41;;;21.52;49.96
70009;BME280;59542;37.950;-122.338;2023-06-26T02:02:55;101504.66;;;21.65;48.83
70009;BME280;59542;37.950;-122.338;2023-06-26T02:05:23;101506.06;;;21.72;49.08
70009;BME280;59542;37.950;-122.338;2023-06-26T02:07:49;101512.44;;;21.88;47.71
70009;BME280;59542;37.950;-122.338;2023-06-26T02:10:17;101504.47;;;21.81;47.61
70009;BME280;59542;37.950;-122.338;2023-06-26T02:12:43;101509.50;;;22.05;47.16
70009;BME280;59542;37.950;-122.338;2023-06-26T02:15:10;101510.38;;;22.10;47.18
70009;BME280;59542;37.950;-122.338;2023-06-26T02:17:36;101504.31;;;22.08;46.75
70009;BME280;59542;37.950;-122.338;2023-06-26T02:20:02;101509.22;;;22.06;46.75
70009;BME280;59542;37.950;-122.338;2023-06-26T02:24:54;101503.28;;;22.14;46.53
70009;BME280;59542;37.950;-122.338;2023-06-26T02:27:21;101499.78;;;22.24;46.58
70009;BME280;59542;37.950;-122.338;2023-06-26T02:29:47;101500.28;;;22.11;47.09
70009;BME280;59542;37.950;-122.338;2023-06-26T02:32:13;101504.84;;;22.00;47.06
70009;BME280;59542;37.950;-122.338;2023-06-26T02:34:40;101504.88;;;22.05;47.11
70009;BME280;59542;37.950;-122.338;2023-06-26T02:37:06;101511.22;;;22.16;46.74
70009;BME280;59542;37.950;-122.338;2023-06-26T02:39:34;101502.75;;;22.12;46.45
70009;BME280;59542;37.950;-122.338;2023-06-26T02:42:00;101502.81;;;22.28;46.09
70009;BME280;59542;37.950;-122.338;2023-06-26T02:44:26;101505.84;;;22.47;45.62
70009;BME280;59542;37.950;-122.338;2023-06-26T02:46:53;101507.47;;;22.32;45.57
70009;BME280;59542;37.950;-122.338;2023-06-26T02:49:19;101510.31;;;22.05;45.98
70009;BME280;59542;37.950;-122.338;2023-06-26T02:51:45;101498.81;;;21.88;46.72
70009;BME280;59542;37.950;-122.338;2023-06-26T02:54:11;101495.06;;;21.52;47.60
70009;BME280;59542;37.950;-122.338;2023-06-26T02:56:38;101500.56;;;20.88;49.31
70009;BME280;59542;37.950;-122.338;2023-06-26T02:59:04;101508.66;;;20.55;50.13
70009;BME280;59542;37.950;-122.338;2023-06-26T03:01:30;101505.56;;;20.47;50.32
70009;BME280;59542;37.950;-122.338;2023-06-26T03:03:56;101505.09;;;20.06;51.79
70009;BME280;59542;37.950;-122.338;2023-06-26T03:06:23;101514.50;;;19.60;53.20
70009;BME280;59542;37.950;-122.338;2023-06-26T03:08:49;101514.66;;;19.19;54.84
70009;BME280;59542;37.950;-122.338;2023-06-26T03:11:15;101516.09;;;19.05;54.94
70009;BME280;59542;37.950;-122.338;2023-06-26T03:13:41;101513.59;;;18.30;57.52
70009;BME280;59542;37.950;-122.338;2023-06-26T03:16:08;101519.94;;;17.95;59.00
70009;BME280;59542;37.950;-122.338;2023-06-26T03:18:34;101521.09;;;17.52;60.46
70009;BME280;59542;37.950;-122.338;2023-06-26T03:21:00;101521.22;;;17.34;60.82
70009;BME280;59542;37.950;-122.338;2023-06-26T03:23:27;101530.34;;;17.09;62.14
70009;BME280;59542;37.950;-122.338;2023-06-26T03:25:53;101532.66;;;16.64;63.68
70009;BME280;59542;37.950;-122.338;2023-06-26T03:28:19;101530.59;;;16.48;64.74
70009;BME280;59542;37.950;-122.338;2023-06-26T03:30:46;101535.84;;;16.43;65.11
70009;BME280;59542;37.950;-122.338;2023-06-26T03:33:12;101543.19;;;16.05;66.14
70009;BME280;59542;37.950;-122.338;2023-06-26T03:35:38;101547.88;;;16.10;66.05
70009;BME280;59542;37.950;-122.338;2023-06-26T03:38:05;101545.06;;;16.05;66.32
70009;BME280;59542;37.950;-122.338;2023-06-26T03:40:31;101547.97;;;16.03;66.56
70009;BME280;59542;37.950;-122.338;2023-06-26T03:42:57;101549.38;;;15.69;67.63
70009;BME280;59542;37.950;-122.338;2023-06-26T03:45:23;101553.59;;;15.58;68.24
70009;BME280;59542;37.950;-122.338;2023-06-26T03:47:50;101564.34;;;15.65;68.03
70009;BME280;59542;37.950;-122.338;2023-06-26T03:50:17;101559.59;;;15.61;68.26
70009;BME280;59542;37.950;-122.338;2023-06-26T03:52:43;101555.75;;;15.50;69.02
70009;BME280;59542;37.950;-122.338;2023-06-26T03:55:10;101552.94;;;15.38;69.47
70009;BME280;59542;37.950;-122.338;2023-06-26T03:57:36;101555.31;;;15.28;69.35
70009;BME280;59542;37.950;-122.338;2023-06-26T04:00:03;101560.25;;;15.31;69.19
70009;BME280;59542;37.950;-122.338;2023-06-26T04:02:38;101564.81;;;15.30;69.09
70009;BME280;59542;37.950;-122.338;2023-06-26T04:05:04;101560.59;;;15.41;68.38
70009;BME280;59542;37.950;-122.338;2023-06-26T04:07:31;101569.63;;;15.28;69.15
70009;BME280;59542;37.950;-122.338;2023-06-26T04:09:57;101573.31;;;15.34;68.89
70009;BME280;59542;37.950;-122.338;2023-06-26T04:12:24;101574.31;;;15.40;68.69
70009;BME280;59542;37.950;-122.338;2023-06-26T04:14:50;101574.38;;;15.26;69.56
70009;BME280;59542;37.950;-122.338;2023-06-26T04:17:16;101570.28;;;15.24;69.62
70009;BME280;59542;37.950;-122.338;2023-06-26T04:19:43;101568.41;;;15.24;69.86
70009;BME280;59542;37.950;-122.338;2023-06-26T04:22:09;101567.34;;;15.25;69.78
70009;BME280;59542;37.950;-122.338;2023-06-26T04:24:35;101569.84;;;15.27;70.10
70009;BME280;59542;37.950;-122.338;2023-06-26T04:27:01;101576.06;;;15.27;70.21
70009;BME280;59542;37.950;-122.338;2023-06-26T04:29:29;101584.34;;;15.26;70.90
70009;BME280;59542;37.950;-122.338;2023-06-26T04:31:55;101583.63;;;15.12;71.22
70009;BME280;59542;37.950;-122.338;2023-06-26T04:34:27;101585.66;;;14.85;72.45
70009;BME280;59542;37.950;-122.338;2023-06-26T04:36:54;101589.13;;;14.92;72.02
70009;BME280;59542;37.950;-122.338;2023-06-26T04:39:20;101583.31;;;14.95;72.10
70009;BME280;59542;37.950;-122.338;2023-06-26T04:41:46;101579.59;;;14.96;71.83
70009;BME280;59542;37.950;-122.338;2023-06-26T04:44:13;101596.19;;;14.93;72.57
70009;BME280;59542;37.950;-122.338;2023-06-26T04:46:39;101595.34;;;14.93;72.63
70009;BME280;59542;37.950;-122.338;2023-06-26T04:49:08;101592.00;;;14.97;72.67
70009;BME280;59542;37.950;-122.338;2023-06-26T04:51:35;101591.63;;;14.94;72.89
70009;BME280;59542;37.950;-122.338;2023-06-26T04:54:10;101598.19;;;15.04;72.28
70009;BME280;59542;37.950;-122.338;2023-06-26T04:56:37;101600.81;;;15.18;71.69
70009;BME280;59542;37.950;-122.338;2023-06-26T04:59:05;101597.75;;;15.08;72.41
70009;BME280;59542;37.950;-122.338;2023-06-26T05:01:31;101594.88;;;15.02;72.49
70009;BME280;59542;37.950;-122.338;2023-06-26T05:04:01;101597.13;;;15.12;72.18
70009;BME280;59542;37.950;-122.338;2023-06-26T05:06:28;101601.03;;;15.16;71.82
70009;BME280;59542;37.950;-122.338;2023-06-26T05:08:54;101593.25;;;15.01;71.90
70009;BME280;59542;37.950;-122.338;2023-06-26T05:11:20;101599.69;;;15.00;72.40
70009;BME280;59542;37.950;-122.338;2023-06-26T05:13:46;101599.91;;;14.92;72.60
70009;BME280;59542;37.950;-122.338;2023-06-26T05:16:13;101587.66;;;14.96;72.29
70009;BME280;59542;37.950;-122.338;2023-06-26T05:18:39;101599.50;;;14.95;72.55
70009;BME280;59542;37.950;-122.338;2023-06-26T05:21:05;101596.44;;;14.85;72.71
70009;BME280;59542;37.950;-122.338;2023-06-26T05:23:33;101595.03;;;14.83;72.65
70009;BME280;59542;37.950;-122.338;2023-06-26T05:26:03;101594.06;;;14.64;73.61
70009;BME280;59542;37.950;-122.338;2023-06-26T05:28:30;101597.53;;;14.77;73.22
70009;BME280;59542;37.950;-122.338;2023-06-26T05:31:01;101590.78;;;14.93;72.55
70009;BME280;59542;37.950;-122.338;2023-06-26T05:33:31;101594.16;;;14.82;73.09
70009;BME280;59542;37.950;-122.338;2023-06-26T05:36:03;101596.72;;;14.77;73.45
70009;BME280;59542;37.950;-122.338;2023-06-26T05:38:30;101585.56;;;14.67;74.29
70009;BME280;59542;37.950;-122.338;2023-06-26T05:40:56;101584.69;;;14.73;73.64
70009;BME280;59542;37.950;-122.338;2023-06-26T05:43:23;101575.16;;;14.77;73.34
70009;BME280;59542;37.950;-122.338;2023-06-26T05:45:49;101574.28;;;14.83;72.90
70009;BME280;59542;37.950;-122.338;2023-06-26T05:48:15;101578.88;;;14.76;73.68
70009;BME280;59542;37.950;-122.338;2023-06-26T05:50:42;101580.19;;;14.60;75.39
70009;BME280;59542;37.950;-122.338;2023-06-26T05:53:09;101583.91;;;14.66;74.70
70009;BME280;59542;37.950;-122.338;2023-06-26T05:55:36;101581.38;;;14.77;74.38
70009;BME280;59542;37.950;-122.338;2023-06-26T05:58:03;101579.91;;;14.75;74.71
70009;BME280;59542;37.950;-122.338;2023-06-26T06:00:29;101579.75;;;14.63;74.90
70009;BME280;59542;37.950;-122.338;2023-06-26T06:02:56;101573.78;;;14.55;75.24
70009;BME280;59542;37.950;-122.338;2023-06-26T06:05:22;101576.84;;;14.65;75.23
70009;BME280;59542;37.950;-122.338;2023-06-26T06:07:49;101570.94;;;14.49;75.57
70009;BME280;59542;37.950;-122.338;2023-06-26T06:10:15;101577.34;;;14.55;75.37
70009;BME280;59542;37.950;-122.338;2023-06-26T06:12:42;101571.34;;;14.40;76.11
70009;BME280;59542;37.950;-122.338;2023-06-26T06:15:08;101583.56;;;14.36;76.65
70009;BME280;59542;37.950;-122.338;2023-06-26T06:17:34;101580.09;;;14.29;76.85
70009;BME280;59542;37.950;-122.338;2023-06-26T06:20:00;101583.44;;;14.17;77.46
70009;BME280;59542;37.950;-122.338;2023-06-26T06:22:27;101580.97;;;14.16;77.25
70009;BME280;59542;37.950;-122.338;2023-06-26T06:24:53;101595.03;;;14.18;77.42
70009;BME280;59542;37.950;-122.338;2023-06-26T06:27:19;101593.38;;;14.17;77.08
70009;BME280;59542;37.950;-122.338;2023-06-26T06:29:45;101596.47;;;14.27;76.30
70009;BME280;59542;37.950;-122.338;2023-06-26T06:32:11;101594.78;;;14.26;76.63
70009;BME280;59542;37.950;-122.338;2023-06-26T06:34:38;101590.31;;;14.07;77.56
70009;BME280;59542;37.950;-122.338;2023-06-26T06:37:04;101584.91;;;14.07;77.55
70009;BME280;59542;37.950;-122.338;2023-06-26T06:39:30;101577.69;;;14.00;78.00
70009;BME280;59542;37.950;-122.338;2023-06-26T06:41:56;101581.00;;;13.96;78.27
70009;BME280;59542;37.950;-122.338;2023-06-26T06:44:23;101588.25;;;13.82;78.94
70009;BME280;59542;37.950;-122.338;2023-06-26T06:46:49;101588.72;;;13.72;79.23
70009;BME280;59542;37.950;-122.338;2023-06-26T06:49:15;101586.44;;;13.63;79.37
70009;BME280;59542;37.950;-122.338;2023-06-26T06:51:42;101587.88;;;13.72;79.15
70009;BME280;59542;37.950;-122.338;2023-06-26T06:54:08;101582.91;;;13.69;79.25
70009;BME280;59542;37.950;-122.338;2023-06-26T06:56:34;101585.38;;;13.70;79.24
70009;BME280;59542;37.950;-122.338;2023-06-26T06:59:00;101590.75;;;13.70;79.44
70009;BME280;59542;37.950;-122.338;2023-06-26T07:01:26;101589.72;;;13.65;80.01
70009;BME280;59542;37.950;-122.338;2023-06-26T07:03:53;101588.28;;;13.49;80.84
70009;BME280;59542;37.950;-122.338;2023-06-26T07:06:19;101589.94;;;13.37;81.14
70009;BME280;59542;37.950;-122.338;2023-06-26T07:08:45;101591.41;;;13.53;80.55
70009;BME280;59542;37.950;-122.338;2023-06-26T07:11:11;101600.28;;;13.40;81.71
70009;BME280;59542;37.950;-122.338;2023-06-26T07:13:38;101590.16;;;13.42;81.94
70009;BME280;59542;37.950;-122.338;2023-06-26T07:16:04;101587.47;;;13.55;81.22
70009;BME280;59542;37.950;-122.338;2023-06-26T07:18:30;101586.63;;;13.55;81.14
70009;BME280;59542;37.950;-122.338;2023-06-26T07:20:57;101584.56;;;13.63;80.69
70009;BME280;59542;37.950;-122.338;2023-06-26T07:23:23;101583.75;;;13.50;81.06
70009;BME280;59542;37.950;-122.338;2023-06-26T07:25:49;101580.22;;;13.42;81.29
70009;BME280;59542;37.950;-122.338;2023-06-26T07:28:15;101572.56;;;13.46;80.85
70009;BME280;59542;37.950;-122.338;2023-06-26T07:30:42;101581.88;;;13.50;81.03
70009;BME280;59542;37.950;-122.338;2023-06-26T07:33:08;101573.63;;;13.38;81.73
70009;BME280;59542;37.950;-122.338;2023-06-26T07:35:34;101571.75;;;13.45;81.92
70009;BME280;59542;37.950;-122.338;2023-06-26T07:38:00;101569.47;;;13.42;81.27
70009;BME280;59542;37.950;-122.338;2023-06-26T07:40:27;101558.50;;;13.37;81.52
70009;BME280;59542;37.950;-122.338;2023-06-26T07:42:53;101564.91;;;13.43;81.41
70009;BME280;59542;37.950;-122.338;2023-06-26T07:45:20;101558.91;;;13.41;80.81
70009;BME280;59542;37.950;-122.338;2023-06-26T07:47:46;101565.53;;;13.32;80.98
70009;BME280;59542;37.950;-122.338;2023-06-26T07:50:12;101557.66;;;13.37;80.79
70009;BME280;59542;37.950;-122.338;2023-06-26T07:52:41;101556.00;;;13.42;80.60
70009;BME280;59542;37.950;-122.338;2023-06-26T07:55:07;101553.31;;;13.49;80.21
70009;BME280;59542;37.950;-122.338;2023-06-26T07:57:34;101553.13;;;13.31;80.85
70009;BME280;59542;37.950;-122.338;2023-06-26T08:00:00;101554.56;;;13.27;80.66
70009;BME280;59542;37.950;-122.338;2023-06-26T08:02:26;101551.91;;;13.33;80.41
70009;BME280;59542;37.950;-122.338;2023-06-26T08:04:52;101552.72;;;13.40;79.92
70009;BME280;59542;37.950;-122.338;2023-06-26T08:07:19;101547.75;;;13.37;80.20
70009;BME280;59542;37.950;-122.338;2023-06-26T08:09:45;101548.59;;;13.44;80.05
70009;BME280;59542;37.950;-122.338;2023-06-26T08:12:11;101543.22;;;13.44;80.22
70009;BME280;59542;37.950;-122.338;2023-06-26T08:14:37;101540.91;;;13.48;80.41
70009;BME280;59542;37.950;-122.338;2023-06-26T08:17:04;101538.03;;;13.50;80.42
70009;BME280;59542;37.950;-122.338;2023-06-26T08:19:30;101544.00;;;13.58;79.73
70009;BME280;59542;37.950;-122.338;2023-06-26T08:21:57;101539.47;;;13.52;79.98
70009;BME280;59542;37.950;-122.338;2023-06-26T08:24:23;101537.59;;;13.59;79.77
70009;BME280;59542;37.950;-122.338;2023-06-26T08:26:49;101536.97;;;13.64;79.17
70009;BME280;59542;37.950;-122.338;2023-06-26T08:29:15;101534.91;;;13.46;79.62
70009;BME280;59542;37.950;-122.338;2023-06-26T08:31:42;101538.22;;;13.55;79.08
70009;BME280;59542;37.950;-122.338;2023-06-26T08:34:09;101534.94;;;13.39;79.60
70009;BME280;59542;37.950;-122.338;2023-06-26T08:36:35;101530.34;;;13.53;79.15
70009;BME280;59542;37.950;-122.338;2023-06-26T08:39:02;101536.16;;;13.50;79.14
70009;BME280;59542;37.950;-122.338;2023-06-26T08:41:30;101518.56;;;13.47;79.23
70009;BME280;59542;37.950;-122.338;2023-06-26T08:43:57;101528.28;;;13.48;79.30
70009;BME280;59542;37.950;-122.338;2023-06-26T08:46:23;101526.25;;;13.44;79.53
70009;BME280;59542;37.950;-122.338;2023-06-26T08:48:56;101515.66;;;13.49;79.25
70009;BME280;59542;37.950;-122.338;2023-06-26T08:51:25;101519.38;;;13.55;78.75
70009;BME280;59542;37.950;-122.338;2023-06-26T08:54:08;101511.94;;;13.57;78.99
70009;BME280;59542;37.950;-122.338;2023-06-26T08:56:41;101521.25;;;13.47;79.26
70009;BME280;59542;37.950;-122.338;2023-06-26T08:59:08;101503.88;;;13.43;79.90
70009;BME280;59542;37.950;-122.338;2023-06-26T09:01:40;101506.97;;;13.54;79.59
70009;BME280;59542;37.950;-122.338;2023-06-26T09:04:07;101504.69;;;13.57;78.91
70009;BME280;59542;37.950;-122.338;2023-06-26T09:06:33;101510.72;;;13.53;79.21
70009;BME280;59542;37.950;-122.338;2023-06-26T09:09:00;101506.78;;;13.48;79.37
70009;BME280;59542;37.950;-122.338;2023-06-26T09:11:26;101505.13;;;13.41;79.61
70009;BME280;59542;37.950;-122.338;2023-06-26T09:13:52;101505.94;;;13.55;79.28
70009;BME280;59542;37.950;-122.338;2023-06-26T09:16:27;101509.91;;;13.45;79.79
70009;BME280;59542;37.950;-122.338;2023-06-26T09:18:53;101498.28;;;13.58;79.07
70009;BME280;59542;37.950;-122.338;2023-06-26T09:21:19;101490.84;;;13.60;78.64
70009;BME280;59542;37.950;-122.338;2023-06-26T09:23:47;101493.75;;;13.45;79.38
70009;BME280;59542;37.950;-122.338;2023-06-26T09:26:16;101483.22;;;13.24;79.95
70009;BME280;59542;37.950;-122.338;2023-06-26T09:28:42;101485.50;;;13.40;79.23
70009;BME280;59542;37.950;-122.338;2023-06-26T09:31:09;101489.00;;;13.47;79.11
70009;BME280;59542;37.950;-122.338;2023-06-26T09:33:37;101486.72;;;13.44;79.74
70009;BME280;59542;37.950;-122.338;2023-06-26T09:36:07;101477.63;;;13.45;80.08
70009;BME280;59542;37.950;-122.338;2023-06-26T09:38:37;101472.22;;;13.52;79.59
70009;BME280;59542;37.950;-122.338;2023-06-26T09:41:03;101474.28;;;13.43;80.08
70009;BME280;59542;37.950;-122.338;2023-06-26T09:43:30;101476.59;;;13.46;80.11
70009;BME280;59542;37.950;-122.338;2023-06-26T09:45:57;101484.88;;;13.38;80.66
70009;BME280;59542;37.950;-122.338;2023-06-26T09:48:24;101478.84;;;13.43;80.40
70009;BME280;59542;37.950;-122.338;2023-06-26T09:50:51;101473.69;;;13.48;79.61
70009;BME280;59542;37.950;-122.338;2023-06-26T09:53:17;101466.66;;;13.40;80.21
70009;BME280;59542;37.950;-122.338;2023-06-26T09:55:44;101468.72;;;13.32;80.39
70009;BME280;59542;37.950;-122.338;2023-06-26T09:58:13;101465.03;;;13.33;81.05
70009;BME280;59542;37.950;-122.338;2023-06-26T10:00:44;101460.03;;;13.36;80.44
70009;BME280;59542;37.950;-122.338;2023-06-26T10:03:10;101459.84;;;13.31;80.86
70009;BME280;59542;37.950;-122.338;2023-06-26T10:05:38;101452.81;;;13.30;80.90
70009;BME280;59542;37.950;-122.338;2023-06-26T10:08:05;101464.19;;;13.12;81.99
70009;BME280;59542;37.950;-122.338;2023-06-26T10:10:35;101453.00;;;13.15;81.70
70009;BME280;59542;37.950;-122.338;2023-06-26T10:13:15;101449.28;;;12.97;82.57
70009;BME280;59542;37.950;-122.338;2023-06-26T10:15:45;101453.84;;;13.16;81.89
70009;BME280;59542;37.950;-122.338;2023-06-26T10:18:13;101457.38;;;13.23;81.60
70009;BME280;59542;37.950;-122.338;2023-06-26T10:20:42;101455.91;;;13.07;82.07
70009;BME280;59542;37.950;-122.338;2023-06-26T10:23:11;101452.38;;;13.20;81.91
70009;BME280;59542;37.950;-122.338;2023-06-26T10:25:41;101445.78;;;13.29;81.45
70009;BME280;59542;37.950;-122.338;2023-06-26T10:28:09;101448.06;;;13.26;81.72
70009;BME280;59542;37.950;-122.338;2023-06-26T10:30:37;101452.63;;;13.25;81.83
70009;BME280;59542;37.950;-122.338;2023-06-26T10:33:05;101455.88;;;13.20;82.25
70009;BME280;59542;37.950;-122.338;2023-06-26T10:35:41;101450.53;;;13.14;82.64
70009;BME280;59542;37.950;-122.338;2023-06-26T10:38:07;101457.16;;;13.05;83.01
70009;BME280;59542;37.950;-122.338;2023-06-26T10:40:44;101445.78;;;13.03;83.13
70009;BME280;59542;37.950;-122.338;2023-06-26T10:43:13;101453.00;;;13.02;82.96
70009;BME280;59542;37.950;-122.338;2023-06-26T10:45:48;101443.50;;;13.13;82.29
70009;BME280;59542;37.950;-122.338;2023-06-26T10:48:21;101439.41;;;13.24;81.88
70009;BME280;59542;37.950;-122.338;2023-06-26T10:50:49;101444.75;;;13.24;81.89
70009;BME280;59542;37.950;-122.338;2023-06-26T10:53:16;101441.44;;;13.35;81.11
70009;BME280;59542;37.950;-122.338;2023-06-26T10:55:59;101441.03;;;13.11;81.76
70009;BME280;59542;37.950;-122.338;2023-06-26T11:01:26;101433.56;;;13.20;81.75
70009;BME280;59542;37.950;-122.338;2023-06-26T11:04:13;101436.69;;;13.04;82.05
70009;BME280;59542;37.950;-122.338;2023-06-26T11:06:45;101431.31;;;13.04;82.20
70009;BME280;59542;37.950;-122.338;2023-06-26T11:09:15;101436.25;;;12.93;82.52
70009;BME280;59542;37.950;-122.338;2023-06-26T11:14:31;101441.22;;;12.97;82.35
70009;BME280;59542;37.950;-122.338;2023-06-26T11:16:58;101437.72;;;12.89;82.78
70009;BME280;59542;37.950;-122.338;2023-06-26T11:19:26;101439.78;;;12.87;83.42
70009;BME280;59542;37.950;-122.338;2023-06-26T11:22:01;101433.56;;;12.87;83.81
70009;BME280;59542;37.950;-122.338;2023-06-26T11:24:28;101430.91;;;12.87;83.91
70009;BME280;59542;37.950;-122.338;2023-06-26T11:27:00;101429.47;;;12.84;83.92
70009;BME280;59542;37.950;-122.338;2023-06-26T11:29:28;101430.91;;;12.74;83.78
70009;BME280;59542;37.950;-122.338;2023-06-26T11:31:59;101428.22;;;12.74;83.96
70009;BME280;59542;37.950;-122.338;2023-06-26T11:34:30;101426.97;;;12.76;83.46
70009;BME280;59542;37.950;-122.338;2023-06-26T11:36:57;101426.56;;;12.73;83.91
70009;BME280;59542;37.950;-122.338;2023-06-26T11:39:23;101422.41;;;12.63;84.18
70009;BME280;59542;37.950;-122.338;2023-06-26T11:41:49;101418.28;;;12.61;84.26
70009;BME280;59542;37.950;-122.338;2023-06-26T11:44:16;101428.00;;;12.55;84.71
70009;BME280;59542;37.950;-122.338;2023-06-26T11:46:46;101422.63;;;12.55;84.01
70009;BME280;59542;37.950;-122.338;2023-06-26T11:49:12;101423.25;;;12.51;84.54
70009;BME280;59542;37.950;-122.338;2023-06-26T11:51:42;101432.31;;;12.50;84.66
70009;BME280;59542;37.950;-122.338;2023-06-26T11:54:08;101424.88;;;12.52;84.81
70009;BME280;59542;37.950;-122.338;2023-06-26T11:56:34;101430.47;;;12.57;84.99
70009;BME280;59542;37.950;-122.338;2023-06-26T11:59:07;101425.50;;;12.54;85.14
70009;BME280;59542;37.950;-122.338;2023-06-26T12:01:36;101434.78;;;12.45;84.97
70009;BME280;59542;37.950;-122.338;2023-06-26T12:04:04;101438.09;;;12.60;84.01
70009;BME280;59542;37.950;-122.338;2023-06-26T12:06:33;101436.88;;;12.56;84.23
70009;BME280;59542;37.950;-122.338;2023-06-26T12:09:01;101434.41;;;12.61;84.28
70009;BME280;59542;37.950;-122.338;2023-06-26T12:11:32;101427.56;;;12.52;84.92
70009;BME280;59542;37.950;-122.338;2023-06-26T12:13:59;101438.31;;;12.45;85.16
70009;BME280;59542;37.950;-122.338;2023-06-26T12:16:28;101440.16;;;12.45;85.82
70009;BME280;59542;37.950;-122.338;2023-06-26T12:19:05;101438.91;;;12.54;85.60
70009;BME280;59542;37.950;-122.338;2023-06-26T12:24:08;101441.75;;;12.32;85.71
70009;BME280;59542;37.950;-122.338;2023-06-26T12:26:35;101442.63;;;12.33;84.59
70009;BME280;59542;37.950;-122.338;2023-06-26T12:29:09;101436.41;;;12.32;84.94
70009;BME280;59542;37.950;-122.338;2023-06-26T12:31:36;101439.72;;;12.34;85.29
70009;BME280;59542;37.950;-122.338;2023-06-26T12:34:09;101433.09;;;12.30;85.60
70009;BME280;59542;37.950;-122.338;2023-06-26T12:36:42;101439.72;;;12.34;85.19